Time;durP1;ratioP1;P1;durP2;ratioP2;P2;SDS_P1;SDS_P2;PMS_P1;PMS_P2;Temp;Humidity;BMP_temperature;BMP_pressure;BME280_temperature;BME280_humidity;BME280_pressure;Samples;Min_cycle;Max_cycle;Signal;HPM_P1;HPM_P2
2022/10/14 00:00:26;;;;;;;0.00;0.00;;;14.80;99.90;;;;;;5034708;28;20514;-74
2022/10/14 00:02:53;;;;;;;0.00;0.00;;;14.80;99.90;;;;;;5034743;28;20441;-75
2022/10/14 00:05:21;;;;;;;0.00;0.00;;;14.80;99.90;;;;;;5034806;28;20445;-75
2022/10/14 00:07:49;;;;;;;0.00;0.00;;;14.80;99.90;;;;;;5034604;28;20808;-74
2022/10/14 00:10:17;;;;;;;0.00;0.00;;;14.80;99.90;;;;;;5034217;28;20992;-74
2022/10/14 00:12:46;;;;;;;0.00;0.00;;;14.80;99.90;;;;;;5034356;28;20433;-74
2022/10/14 00:15:14;;;;;;;0.00;0.00;;;14.80;99.90;;;;;;5034535;28;20453;-75
2022/10/14 00:17:43;;;;;;;0.00;0.00;;;14.80;99.90;;;;;;5034312;28;20465;-74
2022/10/14 00:20:11;;;;;;;0.00;0.00;;;14.80;99.90;;;;;;5034152;28;20840;-75
2022/10/14 00:22:39;;;;;;;0.00;0.00;;;14.80;99.90;;;;;;5034460;28;20503;-75
2022/10/14 00:25:07;;;;;;;0.00;0.00;;;14.80;99.90;;;;;;5033848;28;20933;-75
2022/10/14 00:27:35;;;;;;;0.00;0.00;;;14.80;99.90;;;;;;5033777;28;20449;-74
2022/10/14 00:30:03;;;;;;;0.00;0.00;;;14.80;99.90;;;;;;5034064;28;20519;-75
2022/10/14 00:32:30;;;;;;;0.00;0.00;;;14.80;99.90;;;;;;5033930;28;20995;-75
2022/10/14 00:35:00;;;;;;;0.00;0.00;;;14.80;99.90;;;;;;5034066;28;20503;-75
2022/10/14 00:37:28;;;;;;;0.00;0.00;;;14.80;99.90;;;;;;5036534;28;21018;-75
2022/10/14 00:39:56;;;;;;;0.00;0.00;;;14.80;99.90;;;;;;5037851;28;20461;-75
2022/10/14 00:42:24;;;;;;;0.00;0.00;;;14.70;99.90;;;;;;5034193;28;20433;-74
2022/10/14 00:45:01;;;;;;;0.00;0.00;;;14.70;99.90;;;;;;5033417;28;20503;-74
2022/10/14 00:47:30;;;;;;;0.00;0.00;;;14.80;99.90;;;;;;5033816;28;20433;-75
2022/10/14 00:50:01;;;;;;;0.00;0.00;;;14.80;99.90;;;;;;5033561;28;20484;-75
2022/10/14 00:52:29;;;;;;;0.00;0.00;;;14.80;99.90;;;;;;5033911;28;20488;-74
2022/10/14 00:55:01;;;;;;;0.00;0.00;;;14.80;99.90;;;;;;5033840;28;20453;-75
2022/10/14 00:57:30;;;;;;;0.00;0.00;;;14.80;99.90;;;;;;5033731;28;20441;-74
2022/10/14 01:00:03;;;;;;;0.00;0.00;;;14.80;99.90;;;;;;5033425;28;20882;-74
2022/10/14 01:02:30;;;;;;;0.00;0.00;;;14.80;99.90;;;;;;5033388;28;20487;-74
2022/10/14 01:05:01;;;;;;;0.00;0.00;;;14.80;99.90;;;;;;5033511;28;20646;-75
2022/10/14 01:07:38;;;;;;;0.00;0.00;;;14.80;99.90;;;;;;5033138;28;20479;-74
2022/10/14 01:10:13;;;;;;;0.00;0.00;;;14.80;99.90;;;;;;5033345;28;20473;-75
2022/10/14 01:12:54;;;;;;;0.00;0.00;;;14.90;99.90;;;;;;5033294;28;20476;-75
2022/10/14 01:15:32;;;;;;;0.00;0.00;;;14.80;99.90;;;;;;5033448;28;20475;-75
2022/10/14 01:18:13;;;;;;;0.00;0.00;;;14.90;99.90;;;;;;5033343;28;20434;-74
2022/10/14 01:21:03;;;;;;;0.00;0.00;;;14.90;99.90;;;;;;5033377;28;20452;-75
2022/10/14 01:24:00;;;;;;;0.00;0.00;;;14.90;99.90;;;;;;5033143;28;20444;-74
2022/10/14 01:26:59;;;;;;;0.00;0.00;;;14.90;99.90;;;;;;5033020;28;20453;-75
2022/10/14 01:29:47;;;;;;;0.00;0.00;;;14.90;99.90;;;;;;5033138;28;20994;-75
2022/10/14 01:32:21;;;;;;;0.00;0.00;;;14.90;99.90;;;;;;5034047;28;21045;-75
2022/10/14 01:34:56;;;;;;;0.00;0.00;;;14.80;99.90;;;;;;5033743;28;20437;-75
2022/10/14 01:37:28;;;;;;;0.00;0.00;;;14.80;99.90;;;;;;5033685;28;20861;-75
2022/10/14 01:39:59;;;;;;;0.00;0.00;;;14.80;99.90;;;;;;5032910;28;20461;-75
2022/10/14 01:42:31;;;;;;;0.00;0.00;;;14.80;99.90;;;;;;5032773;28;20440;-75
2022/10/14 01:45:04;;;;;;;0.00;0.00;;;14.80;99.90;;;;;;5032897;28;21005;-75
2022/10/14 01:47:34;;;;;;;0.00;0.00;;;14.80;99.90;;;;;;5033030;28;20495;-74
2022/10/14 01:50:06;;;;;;;0.00;0.00;;;14.80;99.90;;;;;;5032950;28;20472;-75
2022/10/14 01:52:38;;;;;;;0.00;0.00;;;14.90;99.90;;;;;;5032703;28;21012;-75
2022/10/14 01:55:12;;;;;;;0.00;0.00;;;14.90;99.90;;;;;;5033030;28;20438;-74
2022/10/14 01:57:42;;;;;;;0.00;0.00;;;14.90;99.90;;;;;;5035545;28;21010;-74
2022/10/14 02:00:13;;;;;;;0.00;0.00;;;14.90;99.90;;;;;;5036948;28;20459;-75
2022/10/14 02:02:41;;;;;;;0.00;0.00;;;14.90;99.90;;;;;;5037200;28;20449;-74
2022/10/14 02:05:14;;;;;;;0.00;0.00;;;14.90;99.90;;;;;;5037054;28;20457;-74
2022/10/14 02:07:44;;;;;;;0.00;0.00;;;14.90;99.90;;;;;;5036716;28;20491;-74
2022/10/14 02:10:26;;;;;;;0.00;0.00;;;14.90;99.90;;;;;;5036931;28;20472;-75
2022/10/14 02:13:06;;;;;;;0.00;0.00;;;14.90;99.90;;;;;;5036837;28;20472;-74
2022/10/14 02:20:57;;;;;;;0.00;0.00;;;14.80;99.90;;;;;;5041977;28;20855;-75
2022/10/14 02:23:30;;;;;;;0.00;0.00;;;14.80;99.90;;;;;;5036482;28;20428;-73
2022/10/14 02:26:00;;;;;;;0.00;0.00;;;14.90;99.90;;;;;;5036359;28;20990;-75
2022/10/14 02:28:29;;;;;;;0.00;0.00;;;14.80;99.90;;;;;;5036635;28;20483;-75
2022/10/14 02:31:00;;;;;;;0.00;0.00;;;14.80;99.90;;;;;;5036710;28;20555;-75
2022/10/14 02:33:33;;;;;;;0.00;0.00;;;14.80;99.90;;;;;;5036775;28;20531;-75
2022/10/14 02:36:05;;;;;;;0.00;0.00;;;14.70;99.90;;;;;;5036268;28;20863;-75
2022/10/14 02:38:34;;;;;;;0.00;0.00;;;14.70;99.90;;;;;;5036520;28;20448;-75
2022/10/14 02:41:05;;;;;;;0.00;0.00;;;14.80;99.90;;;;;;5036138;28;20518;-75
2022/10/14 02:43:33;;;;;;;0.00;0.00;;;14.70;99.90;;;;;;5036404;28;20429;-75
2022/10/14 02:46:03;;;;;;;0.00;0.00;;;14.80;99.90;;;;;;5036658;28;20452;-74
2022/10/14 02:48:30;;;;;;;0.00;0.00;;;14.70;99.90;;;;;;5037057;28;20499;-75
2022/10/14 02:50:58;;;;;;;0.00;0.00;;;14.70;99.90;;;;;;5036101;28;20469;-74
2022/10/14 02:53:27;;;;;;;0.00;0.00;;;14.80;99.90;;;;;;5036090;28;20523;-75
2022/10/14 02:55:55;;;;;;;0.00;0.00;;;14.70;99.90;;;;;;5036134;28;20437;-75
2022/10/14 02:58:23;;;;;;;0.00;0.00;;;14.70;99.90;;;;;;5035704;28;20448;-75
2022/10/14 03:00:51;;;;;;;0.00;0.00;;;14.70;99.90;;;;;;5035909;28;20476;-75
2022/10/14 03:03:20;;;;;;;0.00;0.00;;;14.80;99.90;;;;;;5035628;28;21006;-75
2022/10/14 03:05:48;;;;;;;0.00;0.00;;;14.80;99.90;;;;;;5035201;28;20449;-75
2022/10/14 03:08:16;;;;;;;0.00;0.00;;;14.80;99.90;;;;;;5035198;28;20516;-75
2022/10/14 03:10:47;;;;;;;0.00;0.00;;;14.80;99.90;;;;;;5035692;28;20449;-75
2022/10/14 03:13:15;;;;;;;0.00;0.00;;;14.70;99.90;;;;;;5035756;28;20503;-75
2022/10/14 03:15:43;;;;;;;0.00;0.00;;;14.80;99.90;;;;;;5035976;28;20507;-75
2022/10/14 03:18:11;;;;;;;0.00;0.00;;;14.80;99.90;;;;;;5035257;28;20932;-75
2022/10/14 03:20:39;;;;;;;0.00;0.00;;;14.80;99.90;;;;;;5035553;28;20473;-74
2022/10/14 03:23:06;;;;;;;0.00;0.00;;;14.70;99.90;;;;;;5035512;28;20503;-75
2022/10/14 03:25:34;;;;;;;0.00;0.00;;;14.80;99.90;;;;;;5035804;28;21002;-75
2022/10/14 03:28:04;;;;;;;0.00;0.00;;;14.80;99.90;;;;;;5035032;28;20452;-75
2022/10/14 03:30:31;;;;;;;0.00;0.00;;;14.80;99.90;;;;;;5035180;28;20979;-75
2022/10/14 03:32:59;;;;;;;0.00;0.00;;;14.80;99.90;;;;;;5036736;28;20526;-75
2022/10/14 03:35:27;;;;;;;0.00;0.00;;;14.80;99.90;;;;;;5035444;28;20448;-75
2022/10/14 03:37:55;;;;;;;0.00;0.00;;;14.70;99.90;;;;;;5034933;28;20452;-74
2022/10/14 03:40:23;;;;;;;0.00;0.00;;;14.80;99.90;;;;;;5034831;28;20507;-75
2022/10/14 03:42:50;;;;;;;0.00;0.00;;;14.70;99.90;;;;;;5034948;28;20864;-75
2022/10/14 03:45:19;;;;;;;0.00;0.00;;;14.70;99.90;;;;;;5034860;28;20936;-75
2022/10/14 03:47:47;;;;;;;0.00;0.00;;;14.70;99.90;;;;;;5034938;28;20442;-75
2022/10/14 03:50:15;;;;;;;0.00;0.00;;;14.70;99.90;;;;;;5035024;28;20468;-75
2022/10/14 03:52:43;;;;;;;0.00;0.00;;;14.80;99.90;;;;;;5034819;28;20836;-74
2022/10/14 03:55:15;;;;;;;0.00;0.00;;;14.80;99.90;;;;;;5034902;28;20441;-74
2022/10/14 03:57:42;;;;;;;0.00;0.00;;;14.70;99.90;;;;;;5034702;28;20441;-74
2022/10/14 04:00:12;;;;;;;0.00;0.00;;;14.80;99.90;;;;;;5034443;28;20461;-75
2022/10/14 04:02:41;;;;;;;0.00;0.00;;;14.70;99.90;;;;;;5034829;28;20815;-74
2022/10/14 04:05:10;;;;;;;0.00;0.00;;;14.70;99.90;;;;;;5033999;28;20446;-74
2022/10/14 04:07:38;;;;;;;0.00;0.00;;;14.70;99.90;;;;;;5033981;28;20829;-74
2022/10/14 04:10:07;;;;;;;0.00;0.00;;;14.70;99.90;;;;;;5034512;28;20469;-75
2022/10/14 04:12:35;;;;;;;0.00;0.00;;;14.70;99.90;;;;;;5034571;28;20446;-75
2022/10/14 04:15:03;;;;;;;0.00;0.00;;;14.70;99.90;;;;;;5034410;28;20928;-75
2022/10/14 04:17:30;;;;;;;0.00;0.00;;;14.70;99.90;;;;;;5034266;28;20449;-74
2022/10/14 04:19:59;;;;;;;0.00;0.00;;;14.60;99.90;;;;;;5032911;28;20469;-75
2022/10/14 04:22:28;;;;;;;0.00;0.00;;;14.60;99.90;;;;;;5034444;28;20455;-74
2022/10/14 04:24:56;;;;;;;0.00;0.00;;;14.60;99.90;;;;;;5034157;28;20912;-75
2022/10/14 04:27:24;;;;;;;0.00;0.00;;;14.60;99.90;;;;;;5034132;28;20437;-74
2022/10/14 04:29:52;;;;;;;0.00;0.00;;;14.60;99.90;;;;;;5034081;28;20885;-75
2022/10/14 04:32:20;;;;;;;0.00;0.00;;;14.70;99.90;;;;;;5033989;28;20528;-75
2022/10/14 04:34:48;;;;;;;0.00;0.00;;;14.60;99.90;;;;;;5033868;28;20476;-74
2022/10/14 04:37:18;;;;;;;0.00;0.00;;;14.60;99.90;;;;;;5033961;28;20449;-74
2022/10/14 04:39:45;;;;;;;0.00;0.00;;;14.70;99.90;;;;;;5033786;28;20450;-75
2022/10/14 04:42:13;;;;;;;0.00;0.00;;;14.70;99.90;;;;;;5034030;28;20441;-75
2022/10/14 04:44:41;;;;;;;0.00;0.00;;;14.70;99.90;;;;;;5034110;28;20499;-75
2022/10/14 04:47:09;;;;;;;0.00;0.00;;;14.80;99.90;;;;;;5033839;28;20437;-75
2022/10/14 04:49:37;;;;;;;0.00;0.00;;;14.70;99.90;;;;;;5033886;28;20457;-74
2022/10/14 04:52:04;;;;;;;0.00;0.00;;;14.80;99.90;;;;;;5034067;28;20511;-74
2022/10/14 04:54:33;;;;;;;0.00;0.00;;;14.80;99.90;;;;;;5033884;28;20511;-75
2022/10/14 04:57:01;;;;;;;0.00;0.00;;;14.80;99.90;;;;;;5035543;28;20449;-75
2022/10/14 04:59:29;;;;;;;0.00;0.00;;;14.70;99.90;;;;;;5034632;28;20433;-75
2022/10/14 05:01:57;;;;;;;0.00;0.00;;;14.70;99.90;;;;;;5033278;28;20456;-75
2022/10/14 05:04:24;;;;;;;0.00;0.00;;;14.70;99.90;;;;;;5033835;28;20483;-75
2022/10/14 05:06:52;;;;;;;0.00;0.00;;;14.80;99.90;;;;;;5032793;28;20843;-75
2022/10/14 05:09:20;;;;;;;0.00;0.00;;;14.80;99.90;;;;;;5033207;28;20449;-75
2022/10/14 05:11:49;;;;;;;0.00;0.00;;;14.80;99.90;;;;;;5033178;28;20514;-74
2022/10/14 05:14:17;;;;;;;0.00;0.00;;;14.90;99.90;;;;;;5032995;28;21054;-74
2022/10/14 05:16:44;;;;;;;0.00;0.00;;;14.90;99.90;;;;;;5033367;28;20507;-75
2022/10/14 05:19:12;;;;;;;0.00;0.00;;;14.90;99.90;;;;;;5033032;28;20456;-75
2022/10/14 05:21:40;;;;;;;0.00;0.00;;;14.90;99.90;;;;;;5033201;28;20988;-75
2022/10/14 05:24:08;;;;;;;0.00;0.00;;;15.00;99.90;;;;;;5033394;28;20458;-75
2022/10/14 05:26:35;;;;;;;0.00;0.00;;;15.00;99.90;;;;;;5032798;28;20446;-74
2022/10/14 05:29:04;;;;;;;0.00;0.00;;;15.00;99.90;;;;;;5033191;28;20445;-75
2022/10/14 05:31:32;;;;;;;0.00;0.00;;;15.00;99.90;;;;;;5034358;28;20469;-74
2022/10/14 05:34:00;;;;;;;0.00;0.00;;;15.00;99.90;;;;;;5033804;28;20538;-74
2022/10/14 05:36:28;;;;;;;0.00;0.00;;;15.00;99.90;;;;;;5032910;28;20503;-73
2022/10/14 05:38:57;;;;;;;0.00;0.00;;;14.90;99.90;;;;;;5033202;28;20449;-74
2022/10/14 05:41:25;;;;;;;0.00;0.00;;;15.00;99.90;;;;;;5032938;28;20465;-74
2022/10/14 05:43:53;;;;;;;0.00;0.00;;;14.90;99.90;;;;;;5033015;28;20858;-75
2022/10/14 05:46:22;;;;;;;0.00;0.00;;;14.90;99.90;;;;;;5033337;28;20453;-74
2022/10/14 05:48:49;;;;;;;0.00;0.00;;;14.90;99.90;;;;;;5032718;28;20437;-75
2022/10/14 05:51:20;;;;;;;0.00;0.00;;;14.90;99.90;;;;;;5032896;28;20536;-74
2022/10/14 05:53:47;;;;;;;0.00;0.00;;;14.90;99.90;;;;;;5032984;28;20477;-75
2022/10/14 05:56:15;;;;;;;0.00;0.00;;;14.90;99.90;;;;;;5033103;28;20476;-76
2022/10/14 05:58:43;;;;;;;0.00;0.00;;;14.90;99.90;;;;;;5032943;28;20452;-75
2022/10/14 06:01:11;;;;;;;0.00;0.00;;;14.90;99.90;;;;;;5032737;28;20863;-74
2022/10/14 06:03:40;;;;;;;0.00;0.00;;;14.90;99.90;;;;;;5032737;28;20936;-75
2022/10/14 06:06:12;;;;;;;0.00;0.00;;;14.90;99.90;;;;;;5031961;28;20454;-74
2022/10/14 06:08:40;;;;;;;0.00;0.00;;;14.90;99.90;;;;;;5032807;28;20908;-74
2022/10/14 06:11:08;;;;;;;0.00;0.00;;;14.90;99.90;;;;;;5032886;28;20523;-75
2022/10/14 06:13:36;;;;;;;0.00;0.00;;;14.90;99.90;;;;;;5032804;28;20947;-75
2022/10/14 06:16:05;;;;;;;0.00;0.00;;;14.90;99.90;;;;;;5032900;28;20444;-75
2022/10/14 06:18:33;;;;;;;0.00;0.00;;;14.90;99.90;;;;;;5032674;28;20495;-74
2022/10/14 06:21:03;;;;;;;0.00;0.00;;;14.90;99.90;;;;;;5032524;28;20477;-74
2022/10/14 06:23:31;;;;;;;0.00;0.00;;;14.90;99.90;;;;;;5033207;28;20452;-74
2022/10/14 06:25:58;;;;;;;0.00;0.00;;;14.90;99.90;;;;;;5034967;28;20425;-74
2022/10/14 06:28:26;;;;;;;0.00;0.00;;;14.90;99.90;;;;;;5035796;28;20455;-74
2022/10/14 06:30:55;;;;;;;0.00;0.00;;;14.90;99.90;;;;;;5035626;28;20464;-75
2022/10/14 06:33:23;;;;;;;0.00;0.00;;;14.90;99.90;;;;;;5034872;28;20503;-74
2022/10/14 06:35:50;;;;;;;0.00;0.00;;;14.90;99.90;;;;;;5032537;28;20526;-74
2022/10/14 06:38:19;;;;;;;0.00;0.00;;;14.90;99.90;;;;;;5032558;28;20449;-74
2022/10/14 06:40:50;;;;;;;0.00;0.00;;;14.90;99.90;;;;;;5032594;28;20456;-75
2022/10/14 06:43:17;;;;;;;0.00;0.00;;;14.90;99.90;;;;;;5033381;28;20441;-74
2022/10/14 06:45:45;;;;;;;0.00;0.00;;;14.90;99.90;;;;;;5036278;28;20463;-74
2022/10/14 06:48:13;;;;;;;0.00;0.00;;;14.90;99.90;;;;;;5035972;28;20441;-74
2022/10/14 06:50:41;;;;;;;0.00;0.00;;;14.90;99.90;;;;;;5035771;28;21065;-74
2022/10/14 06:53:09;;;;;;;0.00;0.00;;;14.90;99.90;;;;;;5036233;28;20448;-75
2022/10/14 06:55:38;;;;;;;0.00;0.00;;;14.90;99.90;;;;;;5035708;28;20480;-74
2022/10/14 06:58:06;;;;;;;0.00;0.00;;;14.90;99.90;;;;;;5035651;28;20440;-74
2022/10/14 07:00:34;;;;;;;0.00;0.00;;;14.90;99.90;;;;;;5035571;28;20472;-74
2022/10/14 07:03:01;;;;;;;0.00;0.00;;;15.00;99.90;;;;;;5035854;28;20544;-74
2022/10/14 07:05:29;;;;;;;0.00;0.00;;;15.00;99.90;;;;;;5035156;28;20491;-73
2022/10/14 07:07:58;;;;;;;0.00;0.00;;;15.00;99.90;;;;;;5035663;28;20888;-74
2022/10/14 07:10:30;;;;;;;0.00;0.00;;;15.00;99.90;;;;;;5035546;28;21045;-73
2022/10/14 07:12:59;;;;;;;0.00;0.00;;;14.90;99.90;;;;;;5035408;28;20515;-74
2022/10/14 07:15:27;;;;;;;0.00;0.00;;;14.90;99.90;;;;;;5035250;28;20481;-73
2022/10/14 07:18:00;;;;;;;0.00;0.00;;;14.90;99.90;;;;;;5035319;28;20924;-74
2022/10/14 07:20:28;;;;;;;0.00;0.00;;;15.00;99.90;;;;;;5035136;28;20503;-74
2022/10/14 07:22:56;;;;;;;0.00;0.00;;;15.00;99.90;;;;;;5035827;28;20486;-74
2022/10/14 07:25:24;;;;;;;0.00;0.00;;;15.10;99.90;;;;;;5035401;28;20441;-74
2022/10/14 07:27:52;;;;;;;0.00;0.00;;;15.10;99.90;;;;;;5035013;28;20944;-74
2022/10/14 07:30:22;;;;;;;0.00;0.00;;;15.10;99.90;;;;;;5037425;28;20473;-74
2022/10/14 07:32:50;;;;;;;0.00;0.00;;;15.10;99.90;;;;;;5035512;28;20481;-75
2022/10/14 07:35:18;;;;;;;0.00;0.00;;;15.10;99.90;;;;;;5035141;28;20484;-75
2022/10/14 07:37:47;;;;;;;0.00;0.00;;;15.20;99.90;;;;;;5034890;28;20955;-74
2022/10/14 07:40:15;;;;;;;0.00;0.00;;;15.30;99.90;;;;;;5035130;28;20534;-74
2022/10/14 07:42:43;;;;;;;0.00;0.00;;;15.30;99.90;;;;;;5035542;28;20453;-74
2022/10/14 07:45:15;;;;;;;0.00;0.00;;;15.30;99.90;;;;;;5035110;28;20437;-74
2022/10/14 07:47:46;;;;;;;0.00;0.00;;;15.30;99.90;;;;;;5034706;28;20437;-74
2022/10/14 07:50:14;;;;;;;0.00;0.00;;;15.30;99.90;;;;;;5034840;28;20527;-75
2022/10/14 07:52:42;;;;;;;0.00;0.00;;;15.20;99.90;;;;;;5034567;28;20441;-74
2022/10/14 07:55:09;;;;;;;0.00;0.00;;;15.30;99.90;;;;;;5034830;28;20519;-74
2022/10/14 07:57:37;;;;;;;0.00;0.00;;;15.30;99.90;;;;;;5034738;28;20444;-74
2022/10/14 08:00:06;;;;;;;0.00;0.00;;;15.30;99.90;;;;;;5035038;28;20807;-74
2022/10/14 08:02:34;;;;;;;0.00;0.00;;;15.30;99.90;;;;;;5034658;28;20479;-74
2022/10/14 08:05:04;;;;;;;0.00;0.00;;;15.30;99.90;;;;;;5034339;28;20426;-73
2022/10/14 08:07:52;;;;;;;0.00;0.00;;;15.30;99.90;;;;;;5034746;28;20824;-74
2022/10/14 08:10:20;;;;;;;0.00;0.00;;;15.40;99.90;;;;;;5034866;28;20655;-74
2022/10/14 08:12:47;;;;;;;0.00;0.00;;;15.40;99.90;;;;;;5034793;28;20483;-74
2022/10/14 08:15:15;;;;;;;0.00;0.00;;;15.30;99.90;;;;;;5034881;28;20892;-74
2022/10/14 08:17:43;;;;;;;0.00;0.00;;;15.30;99.90;;;;;;5034052;28;20456;-74
2022/10/14 08:20:12;;;;;;;0.00;0.00;;;15.30;99.90;;;;;;5033956;28;20484;-73
2022/10/14 08:22:40;;;;;;;0.00;0.00;;;15.40;99.90;;;;;;5034943;28;20441;-74
2022/10/14 08:25:08;;;;;;;0.00;0.00;;;15.40;99.90;;;;;;5034354;28;20514;-74
2022/10/14 08:27:36;;;;;;;0.00;0.00;;;15.40;99.90;;;;;;5033803;28;20426;-73
2022/10/14 08:30:05;;;;;;;0.00;0.00;;;15.50;99.90;;;;;;5033783;28;20457;-74
2022/10/14 08:32:37;;;;;;;0.00;0.00;;;15.60;99.90;;;;;;5034074;28;20989;-74
2022/10/14 08:35:06;;;;;;;0.00;0.00;;;15.70;99.90;;;;;;5034114;28;20504;-74
2022/10/14 08:37:35;;;;;;;0.00;0.00;;;15.70;99.90;;;;;;5033758;28;20503;-74
2022/10/14 08:40:04;;;;;;;0.00;0.00;;;15.70;99.90;;;;;;5033822;28;20553;-74
2022/10/14 08:42:43;;;;;;;0.00;0.00;;;15.80;99.90;;;;;;5033762;28;20441;-74
2022/10/14 08:45:14;;;;;;;0.00;0.00;;;15.90;99.90;;;;;;5033730;28;20429;-74
2022/10/14 08:47:45;;;;;;;0.00;0.00;;;15.90;99.90;;;;;;5033710;28;20438;-73
2022/10/14 08:50:23;;;;;;;0.00;0.00;;;16.00;99.90;;;;;;5033732;28;20474;-74
2022/10/14 08:52:55;;;;;;;0.00;0.00;;;16.20;99.90;;;;;;5033685;28;20490;-74
2022/10/14 08:55:36;;;;;;;0.00;0.00;;;16.30;99.90;;;;;;5033718;28;20478;-74
2022/10/14 08:58:11;;;;;;;0.00;0.00;;;16.40;99.90;;;;;;5033535;28;20560;-73
2022/10/14 09:00:41;;;;;;;0.00;0.00;;;16.30;99.90;;;;;;5033586;28;20452;-74
2022/10/14 09:03:18;;;;;;;0.00;0.00;;;16.30;99.90;;;;;;5033394;28;20806;-74
2022/10/14 09:05:58;;;;;;;0.00;0.00;;;16.40;99.90;;;;;;5033092;28;20442;-74
2022/10/14 09:08:33;;;;;;;0.00;0.00;;;16.50;99.90;;;;;;5033284;28;20446;-74
2022/10/14 09:11:00;;;;;;;0.00;0.00;;;16.70;99.90;;;;;;5033228;28;20511;-73
2022/10/14 09:13:34;;;;;;;0.00;0.00;;;16.80;99.90;;;;;;5033106;28;20943;-74
2022/10/14 09:16:05;;;;;;;0.00;0.00;;;16.90;99.90;;;;;;5032993;28;20473;-72
2022/10/14 09:18:38;;;;;;;0.00;0.00;;;17.00;99.90;;;;;;5032938;28;20474;-74
2022/10/14 09:21:22;;;;;;;0.00;0.00;;;17.00;99.90;;;;;;5033147;28;20469;-74
2022/10/14 09:24:13;;;;;;;0.00;0.00;;;17.00;99.90;;;;;;5032942;28;20897;-73
2022/10/14 09:26:43;;;;;;;0.00;0.00;;;16.90;99.90;;;;;;5033641;28;20443;-73
2022/10/14 09:29:20;;;;;;;0.00;0.00;;;16.90;99.90;;;;;;5033250;28;20522;-74
2022/10/14 09:31:48;;;;;;;0.00;0.00;;;16.80;99.90;;;;;;5033054;28;20504;-74
2022/10/14 09:34:20;;;;;;;0.00;0.00;;;16.70;99.90;;;;;;5032971;28;20500;-73
2022/10/14 09:36:50;;;;;;;0.00;0.00;;;16.70;99.90;;;;;;5032546;28;20514;-73
2022/10/14 09:39:20;;;;;;;0.00;0.00;;;16.80;99.90;;;;;;5033128;28;20453;-74
2022/10/14 09:41:52;;;;;;;0.00;0.00;;;16.90;99.90;;;;;;5032522;28;20459;-74
2022/10/14 09:44:21;;;;;;;0.00;0.00;;;16.80;99.90;;;;;;5032671;28;20854;-74
2022/10/14 09:46:52;;;;;;;0.00;0.00;;;16.90;99.90;;;;;;5033096;28;20915;-74
2022/10/14 09:49:33;;;;;;;0.00;0.00;;;17.00;99.90;;;;;;5032210;28;20435;-74
2022/10/14 09:52:02;;;;;;;0.00;0.00;;;17.10;99.90;;;;;;5032525;28;20535;-74
2022/10/14 09:54:32;;;;;;;0.00;0.00;;;17.20;99.90;;;;;;5032344;28;20502;-74
2022/10/14 09:57:07;;;;;;;0.00;0.00;;;17.20;99.90;;;;;;5032279;28;20529;-74
2022/10/14 09:59:39;;;;;;;0.00;0.00;;;17.20;99.90;;;;;;5032046;28;20996;-74
2022/10/14 10:02:22;;;;;;;0.00;0.00;;;17.10;99.90;;;;;;5032161;28;20447;-74
2022/10/14 10:04:51;;;;;;;0.00;0.00;;;16.90;99.90;;;;;;5032595;28;20464;-74
2022/10/14 10:07:27;;;;;;;0.00;0.00;;;16.80;99.90;;;;;;5032117;28;20435;-73
2022/10/14 10:09:57;;;;;;;0.00;0.00;;;16.80;99.90;;;;;;5032301;28;20511;-74
2022/10/14 10:12:30;;;;;;;0.00;0.00;;;16.60;99.90;;;;;;5032628;28;20496;-74
2022/10/14 10:15:02;;;;;;;0.00;0.00;;;16.70;99.90;;;;;;5032722;28;20460;-73
2022/10/14 10:17:31;;;;;;;0.00;0.00;;;16.80;99.90;;;;;;5031982;28;20477;-72
2022/10/14 10:20:11;;;;;;;0.00;0.00;;;16.90;99.90;;;;;;5035452;28;20473;-74
2022/10/14 10:22:38;;;;;;;0.00;0.00;;;16.80;99.90;;;;;;5036078;28;20501;-74
2022/10/14 10:25:25;;;;;;;0.00;0.00;;;16.90;99.90;;;;;;5035843;28;20950;-74
2022/10/14 10:27:55;;;;;;;0.00;0.00;;;17.00;99.90;;;;;;5035769;28;20969;-74
2022/10/14 10:30:26;;;;;;;0.00;0.00;;;17.10;99.90;;;;;;5036220;28;20531;-74
2022/10/14 10:33:08;;;;;;;0.00;0.00;;;17.20;99.90;;;;;;5036416;28;20447;-75
2022/10/14 10:35:57;;;;;;;0.00;0.00;;;17.30;99.90;;;;;;5036013;28;20454;-74
2022/10/14 10:38:30;;;;;;;0.00;0.00;;;17.20;99.90;;;;;;5035947;28;20504;-74
2022/10/14 10:41:15;;;;;;;0.00;0.00;;;17.20;99.90;;;;;;5035433;28;20463;-73
2022/10/14 10:44:14;;;;;;;0.00;0.00;;;17.20;99.90;;;;;;5035948;28;20438;-74
2022/10/14 10:46:59;;;;;;;0.00;0.00;;;17.40;99.90;;;;;;5036174;28;20779;-74
2022/10/14 10:49:48;;;;;;;0.00;0.00;;;17.40;99.90;;;;;;5035431;28;20969;-74
2022/10/14 10:52:29;;;;;;;0.00;0.00;;;17.50;99.90;;;;;;5035934;28;20836;-74
2022/10/14 10:55:03;;;;;;;0.00;0.00;;;17.50;99.90;;;;;;5035611;28;20447;-74
2022/10/14 10:57:48;;;;;;;0.00;0.00;;;17.50;99.90;;;;;;5035802;28;20482;-74
2022/10/14 11:00:19;;;;;;;0.00;0.00;;;17.40;99.90;;;;;;5036594;28;20514;-74
2022/10/14 11:02:54;;;;;;;0.00;0.00;;;17.50;99.90;;;;;;5036265;28;20433;-74
2022/10/14 11:05:43;;;;;;;0.00;0.00;;;17.50;99.90;;;;;;5035414;28;20432;-74
2022/10/14 11:14:22;;;;;;;0.00;0.00;;;17.60;99.90;;;;;;5035442;28;20486;-74
2022/10/14 11:17:01;;;;;;;0.00;0.00;;;17.70;99.90;;;;;;5035098;28;20478;-74
2022/10/14 11:19:40;;;;;;;0.00;0.00;;;17.70;99.90;;;;;;5035210;28;20449;-74
2022/10/14 11:22:21;;;;;;;0.00;0.00;;;17.80;99.90;;;;;;5035923;28;20446;-73
2022/10/14 11:24:57;;;;;;;0.00;0.00;;;17.80;99.90;;;;;;5035916;28;20946;-74
2022/10/14 11:27:35;;;;;;;0.00;0.00;;;17.70;99.90;;;;;;5035125;28;20440;-74
2022/10/14 11:30:19;;;;;;;0.00;0.00;;;17.70;99.90;;;;;;5034810;28;20455;-73
2022/10/14 11:33:05;;;;;;;0.00;0.00;;;17.70;99.90;;;;;;5034813;28;20813;-74
2022/10/14 11:35:49;;;;;;;0.00;0.00;;;17.50;99.90;;;;;;5035524;28;20440;-74
2022/10/14 11:38:36;;;;;;;0.00;0.00;;;17.30;99.90;;;;;;5034432;28;20476;-74
2022/10/14 11:41:12;;;;;;;0.00;0.00;;;17.20;99.90;;;;;;5034721;28;20466;-74
2022/10/14 11:43:49;;;;;;;0.00;0.00;;;17.20;99.90;;;;;;5034389;28;20443;-74
2022/10/14 11:46:20;;;;;;;0.00;0.00;;;17.10;99.90;;;;;;5035163;28;20439;-73
2022/10/14 11:48:52;;;;;;;0.00;0.00;;;17.00;99.90;;;;;;5034553;28;20434;-74
2022/10/14 11:51:24;;;;;;;0.00;0.00;;;16.90;99.90;;;;;;5034508;28;20500;-74
2022/10/14 11:54:00;;;;;;;0.00;0.00;;;16.90;99.90;;;;;;5034825;28;20419;-73
2022/10/14 11:56:37;;;;;;;0.00;0.00;;;16.90;99.90;;;;;;5034171;28;20492;-74
2022/10/14 11:59:19;;;;;;;0.00;0.00;;;16.90;99.90;;;;;;5034483;28;20431;-73
2022/10/14 12:01:50;;;;;;;0.00;0.00;;;17.00;99.90;;;;;;5034764;28;20471;-74
2022/10/14 12:04:26;;;;;;;0.00;0.00;;;17.00;99.90;;;;;;5035047;28;20446;-74
2022/10/14 12:07:02;;;;;;;0.00;0.00;;;17.10;99.90;;;;;;5034149;28;20435;-74
2022/10/14 12:09:37;;;;;;;0.00;0.00;;;17.10;99.90;;;;;;5034694;28;20502;-74
2022/10/14 12:12:08;;;;;;;0.00;0.00;;;17.10;99.90;;;;;;5034710;28;20440;-74
2022/10/14 12:14:39;;;;;;;0.00;0.00;;;17.20;99.90;;;;;;5034132;28;20500;-74
2022/10/14 12:17:18;;;;;;;0.00;0.00;;;17.20;99.90;;;;;;5033758;28;20588;-74
2022/10/14 12:19:47;;;;;;;0.00;0.00;;;17.20;99.90;;;;;;5033660;28;20909;-74
2022/10/14 12:22:19;;;;;;;0.00;0.00;;;17.10;99.90;;;;;;5034214;28;20501;-74
2022/10/14 12:24:51;;;;;;;0.00;0.00;;;17.00;99.90;;;;;;5033821;28;20456;-74
2022/10/14 12:27:21;;;;;;;0.00;0.00;;;17.00;99.90;;;;;;5033984;28;20442;-74
2022/10/14 12:29:51;;;;;;;0.00;0.00;;;16.90;99.90;;;;;;5033541;28;20460;-74
2022/10/14 12:32:23;;;;;;;0.00;0.00;;;17.00;99.90;;;;;;5034048;28;20488;-74
2022/10/14 12:34:56;;;;;;;0.00;0.00;;;17.00;99.90;;;;;;5033969;28;20485;-74
2022/10/14 12:37:41;;;;;;;0.00;0.00;;;16.80;99.90;;;;;;5033729;28;20486;-73
2022/10/14 12:40:29;;;;;;;0.00;0.00;;;16.70;99.90;;;;;;5033764;28;20519;-74
2022/10/14 12:43:15;;;;;;;0.00;0.00;;;16.70;99.90;;;;;;5033786;28;20496;-74
2022/10/14 12:45:50;;;;;;;0.00;0.00;;;16.60;99.90;;;;;;5033645;28;20441;-74
2022/10/14 12:48:22;;;;;;;0.00;0.00;;;16.50;99.90;;;;;;5033378;28;20439;-74
2022/10/14 12:51:13;;;;;;;0.00;0.00;;;16.50;99.90;;;;;;5033671;28;20470;-74
2022/10/14 12:53:51;;;;;;;0.00;0.00;;;16.50;99.90;;;;;;5033544;28;20442;-74
2022/10/14 12:56:35;;;;;;;0.00;0.00;;;16.50;99.90;;;;;;5033158;28;20449;-74
2022/10/14 12:59:05;;;;;;;0.00;0.00;;;16.60;99.90;;;;;;5032861;28;20530;-74
2022/10/14 13:01:34;;;;;;;0.00;0.00;;;16.60;99.90;;;;;;5033328;28;20568;-74
2022/10/14 13:04:07;;;;;;;0.00;0.00;;;16.70;99.90;;;;;;5033869;28;20467;-74
2022/10/14 13:06:38;;;;;;;0.00;0.00;;;16.70;99.90;;;;;;5033075;28;20464;-74
2022/10/14 13:09:40;;;;;;;0.00;0.00;;;16.70;99.90;;;;;;5032824;28;20433;-74
2022/10/14 13:12:41;;;;;;;0.00;0.00;;;16.80;99.90;;;;;;5033056;28;20441;-73
2022/10/14 13:15:44;;;;;;;0.00;0.00;;;16.90;99.90;;;;;;5032834;28;20460;-74
2022/10/14 13:18:49;;;;;;;0.00;0.00;;;16.90;99.90;;;;;;5031328;28;20486;-74
2022/10/14 13:21:46;;;;;;;0.00;0.00;;;16.80;99.90;;;;;;5012350;28;20465;-74
2022/10/14 13:24:17;;;;;;;0.00;0.00;;;16.70;99.90;;;;;;5032623;28;20833;-74